Time;durP1;ratioP1;P1;durP2;ratioP2;P2;SDS_P1;SDS_P2;PMS_P1;PMS_P2;Temp;Humidity;BMP_temperature;BMP_pressure;BME280_temperature;BME280_humidity;BME280_pressure;Samples;Min_cycle;Max_cycle;Signal;HPM_P1;HPM_P2
2022/11/06 00:00:37;;;;;;;14.40;12.85;;;5.60;99.90;;;;;;5069714;28;20221;-85
2022/11/06 00:03:05;;;;;;;15.93;14.32;;;5.50;99.90;;;;;;5084010;28;20225;-85
2022/11/06 00:08:27;;;;;;;15.70;13.20;;;5.50;99.90;;;;;;5065424;28;20574;-85
2022/11/06 00:10:55;;;;;;;14.70;12.52;;;5.50;99.90;;;;;;5073449;28;20200;-85
2022/11/06 00:13:22;;;;;;;14.27;12.77;;;5.50;99.90;;;;;;5066219;28;20308;-85
2022/11/06 00:15:49;;;;;;;13.65;11.95;;;5.50;99.90;;;;;;5071087;28;20204;-85
2022/11/06 00:18:15;;;;;;;16.73;14.45;;;5.50;99.90;;;;;;5073393;28;20213;-85
2022/11/06 00:20:42;;;;;;;16.55;13.27;;;5.50;99.90;;;;;;5073812;28;20221;-85
2022/11/06 00:23:09;;;;;;;16.75;15.07;;;5.50;99.90;;;;;;5075253;28;20236;-85
2022/11/06 00:25:40;;;;;;;16.77;14.15;;;5.50;99.90;;;;;;5073026;28;20215;-84
2022/11/06 00:28:08;;;;;;;16.70;14.90;;;5.50;99.90;;;;;;5072341;28;20204;-86
2022/11/06 00:30:35;;;;;;;16.17;14.35;;;5.50;99.90;;;;;;5052848;28;20206;-85
2022/11/06 00:33:02;;;;;;;16.75;13.77;;;5.50;99.90;;;;;;5053696;28;20230;-85
2022/11/06 00:35:28;;;;;;;16.50;14.07;;;5.50;99.90;;;;;;5073220;28;20204;-85
2022/11/06 00:37:56;;;;;;;18.80;13.20;;;5.50;99.90;;;;;;5073482;28;20685;-86
2022/11/06 00:40:23;;;;;;;14.63;13.20;;;5.50;99.90;;;;;;5073665;28;20228;-85
2022/11/06 00:42:54;;;;;;;14.88;13.07;;;5.50;99.90;;;;;;5073819;28;20228;-86
2022/11/06 00:45:22;;;;;;;13.88;12.57;;;5.40;99.90;;;;;;5072352;28;20610;-85
2022/11/06 00:47:49;;;;;;;15.68;14.13;;;5.40;99.90;;;;;;5073174;28;20622;-86
2022/11/06 00:50:16;;;;;;;13.90;12.48;;;5.40;99.90;;;;;;5073616;28;20835;-85
2022/11/06 00:52:43;;;;;;;13.38;12.18;;;5.40;99.90;;;;;;5079881;28;20217;-84
2022/11/06 00:55:10;;;;;;;13.48;12.05;;;5.40;99.90;;;;;;5081144;28;20193;-84
2022/11/06 00:57:37;;;;;;;15.02;12.38;;;5.30;99.90;;;;;;5074132;28;20584;-85
2022/11/06 01:00:06;;;;;;;16.13;13.95;;;5.30;99.90;;;;;;5074261;28;20676;-85
2022/11/06 01:02:34;;;;;;;15.45;12.77;;;5.30;99.90;;;;;;5074480;28;20240;-86
2022/11/06 01:05:01;;;;;;;13.30;11.80;;;5.30;99.90;;;;;;5078146;28;20207;-84
2022/11/06 01:07:27;;;;;;;12.50;11.20;;;5.20;99.90;;;;;;5077526;28;20205;-85
2022/11/06 01:09:54;;;;;;;12.75;11.40;;;5.20;99.90;;;;;;5074822;28;20230;-86
2022/11/06 01:12:21;;;;;;;13.35;11.57;;;5.10;99.90;;;;;;5073796;28;20225;-85
2022/11/06 01:14:48;;;;;;;14.07;12.07;;;5.10;99.90;;;;;;5072664;28;20203;-85
2022/11/06 01:17:15;;;;;;;14.30;12.80;;;5.10;99.90;;;;;;5072751;28;20205;-86
2022/11/06 01:19:43;;;;;;;13.90;12.38;;;5.10;99.90;;;;;;5072941;28;20208;-86
2022/11/06 01:22:10;;;;;;;15.20;13.63;;;5.10;99.90;;;;;;5073326;28;20227;-85
2022/11/06 01:24:37;;;;;;;13.65;11.35;;;5.10;99.90;;;;;;5093066;28;20192;-83
2022/11/06 01:27:05;;;;;;;12.98;10.52;;;5.00;99.90;;;;;;5096613;28;20249;-83
2022/11/06 01:29:32;;;;;;;17.83;12.15;;;5.00;99.90;;;;;;5095849;28;20189;-82
2022/11/06 01:31:58;;;;;;;14.40;12.20;;;5.00;99.90;;;;;;5096098;28;20188;-82
2022/11/06 01:34:25;;;;;;;15.38;12.55;;;5.00;99.90;;;;;;5082142;28;20312;-86
2022/11/06 01:36:54;;;;;;;14.40;12.02;;;5.00;99.90;;;;;;5073409;28;20205;-85
2022/11/06 01:39:20;;;;;;;16.25;11.15;;;5.00;99.90;;;;;;5072948;28;20206;-85
2022/11/06 01:41:49;;;;;;;13.38;11.95;;;4.90;99.90;;;;;;5072642;28;20225;-86
2022/11/06 01:44:53;;;;;;;12.80;11.27;;;5.00;99.90;;;;;;5086472;28;20256;-85
2022/11/06 01:47:23;;;;;;;12.85;11.50;;;4.90;99.90;;;;;;5073287;28;20664;-85
2022/11/06 01:49:52;;;;;;;13.85;12.13;;;4.90;99.90;;;;;;5071935;28;20203;-85
2022/11/06 01:52:22;;;;;;;11.55;10.45;;;4.80;99.90;;;;;;5072049;28;20248;-86
2022/11/06 01:54:52;;;;;;;12.65;10.77;;;4.80;99.90;;;;;;5072932;28;20205;-85
2022/11/06 01:57:19;;;;;;;15.50;13.32;;;4.80;99.90;;;;;;5073097;28;20224;-86
2022/11/06 01:59:46;;;;;;;12.90;11.57;;;4.70;99.90;;;;;;5073018;28;20209;-86
2022/11/06 02:02:15;;;;;;;20.20;14.70;;;4.60;99.90;;;;;;5072623;28;20221;-85
2022/11/06 02:04:44;;;;;;;15.88;12.98;;;4.70;99.90;;;;;;5073154;28;20236;-85
2022/11/06 02:07:12;;;;;;;16.83;13.50;;;4.60;99.90;;;;;;5072621;28;20201;-86
2022/11/06 02:09:40;;;;;;;15.98;14.18;;;4.60;99.90;;;;;;5073751;28;20211;-85
2022/11/06 02:12:14;;;;;;;15.50;13.38;;;4.60;99.90;;;;;;5075829;28;20205;-86
2022/11/06 02:14:48;;;;;;;14.82;12.30;;;4.60;99.90;;;;;;5076389;28;20207;-85
2022/11/06 02:17:22;;;;;;;13.32;11.82;;;4.60;99.90;;;;;;5075309;28;20218;-84
2022/11/06 02:20:00;;;;;;;14.55;13.02;;;4.50;99.90;;;;;;5078385;28;20199;-86
2022/11/06 02:22:40;;;;;;;16.65;13.23;;;4.50;99.90;;;;;;5079984;28;20260;-85
2022/11/06 02:25:22;;;;;;;14.13;11.90;;;4.50;99.90;;;;;;5076606;28;20219;-85
2022/11/06 02:28:01;;;;;;;12.35;11.05;;;4.50;99.90;;;;;;5076184;28;20241;-85
2022/11/06 02:30:32;;;;;;;15.13;11.82;;;4.50;99.90;;;;;;5076715;28;20201;-85
2022/11/06 02:33:03;;;;;;;13.68;11.48;;;4.50;99.90;;;;;;5076418;28;20236;-86
2022/11/06 02:35:33;;;;;;;11.88;10.18;;;4.40;99.90;;;;;;5075683;28;20185;-82
2022/11/06 02:38:04;;;;;;;14.63;11.85;;;4.40;99.90;;;;;;5058055;28;20617;-85
2022/11/06 02:40:34;;;;;;;14.85;12.35;;;4.40;99.90;;;;;;5055074;28;20237;-85
2022/11/06 02:43:07;;;;;;;14.30;12.70;;;4.40;99.90;;;;;;5054910;28;20240;-85
2022/11/06 02:45:45;;;;;;;17.20;13.75;;;4.40;99.90;;;;;;5074797;28;20622;-85
2022/11/06 02:48:17;;;;;;;13.57;12.15;;;4.30;99.90;;;;;;5075219;28;20697;-85
2022/11/06 02:50:48;;;;;;;16.00;14.10;;;4.40;99.90;;;;;;5076235;28;20746;-84
2022/11/06 02:53:18;;;;;;;12.13;10.90;;;4.40;99.90;;;;;;5076031;28;20231;-86
2022/11/06 02:55:48;;;;;;;13.80;12.45;;;4.40;99.90;;;;;;5076204;28;20212;-86
2022/11/06 02:58:20;;;;;;;14.70;12.98;;;4.40;99.90;;;;;;5075595;28;20216;-85
2022/11/06 03:00:53;;;;;;;13.65;12.23;;;4.40;99.90;;;;;;5055872;28;20226;-85
2022/11/06 03:03:24;;;;;;;14.07;12.57;;;4.30;99.90;;;;;;5069076;28;20238;-85
2022/11/06 03:05:55;;;;;;;12.77;11.43;;;4.30;99.90;;;;;;5074514;28;20218;-85
2022/11/06 03:08:27;;;;;;;13.55;11.68;;;4.30;99.90;;;;;;5074239;28;20212;-86
2022/11/06 03:11:02;;;;;;;13.45;11.23;;;4.30;99.90;;;;;;5074450;28;20230;-86
2022/11/06 03:13:38;;;;;;;17.23;12.65;;;4.30;99.90;;;;;;5074071;28;20741;-85
2022/11/06 03:16:11;;;;;;;14.95;12.15;;;4.30;99.90;;;;;;5075088;28;20216;-85
2022/11/06 03:18:43;;;;;;;14.23;10.48;;;4.20;99.90;;;;;;5073673;28;20207;-85
2022/11/06 03:21:20;;;;;;;13.38;11.50;;;4.20;99.90;;;;;;5073706;28;20217;-86
2022/11/06 03:23:52;;;;;;;13.00;11.63;;;4.20;99.90;;;;;;5074082;28;20225;-84
2022/11/06 03:26:24;;;;;;;14.02;10.77;;;4.20;99.90;;;;;;5087569;28;20239;-85
2022/11/06 03:28:56;;;;;;;14.05;12.55;;;4.20;99.90;;;;;;5074797;28;20201;-85
2022/11/06 03:31:32;;;;;;;15.95;12.25;;;4.20;99.90;;;;;;5075109;28;20224;-84
2022/11/06 03:34:04;;;;;;;14.05;12.35;;;4.10;99.90;;;;;;5074478;28;20225;-85
2022/11/06 03:36:33;;;;;;;14.00;10.48;;;4.10;99.90;;;;;;5074913;28;20200;-86
2022/11/06 03:39:03;;;;;;;14.93;12.02;;;4.10;99.90;;;;;;5074158;28;20287;-86
2022/11/06 03:41:37;;;;;;;14.95;12.52;;;4.10;99.90;;;;;;5074380;28;20224;-85
2022/11/06 03:44:09;;;;;;;13.15;11.80;;;4.00;99.90;;;;;;5074645;28;20230;-85
2022/11/06 03:46:40;;;;;;;14.25;12.85;;;4.00;99.90;;;;;;5074480;28;20230;-85
2022/11/06 03:49:12;;;;;;;12.50;11.30;;;4.00;99.90;;;;;;5073736;28;20211;-86
2022/11/06 03:51:43;;;;;;;15.63;12.57;;;3.90;99.90;;;;;;5074167;28;20583;-85
2022/11/06 03:54:17;;;;;;;24.23;13.18;;;3.90;99.90;;;;;;5074180;28;20756;-85
2022/11/06 03:56:49;;;;;;;12.35;10.60;;;3.80;99.90;;;;;;5074518;28;20218;-85
2022/11/06 03:59:22;;;;;;;12.43;11.20;;;3.80;99.90;;;;;;5073857;28;20213;-85
2022/11/06 04:01:50;;;;;;;14.73;12.40;;;3.70;99.90;;;;;;5074371;28;20229;-85
2022/11/06 04:04:21;;;;;;;12.90;10.82;;;3.70;99.90;;;;;;5073612;28;20228;-85
2022/11/06 04:06:54;;;;;;;22.10;11.45;;;3.70;99.90;;;;;;5074078;28;20212;-84
2022/11/06 04:15:06;;;;;;;15.43;9.95;;;3.50;99.90;;;;;;5056838;28;20346;-85
2022/11/06 04:17:33;;;;;;;21.60;11.73;;;3.50;99.90;;;;;;5053723;28;20266;-86
2022/11/06 04:20:02;;;;;;;14.73;9.15;;;3.40;99.90;;;;;;5073005;28;20292;-84
2022/11/06 04:22:41;;;;;;;18.50;9.95;;;3.40;99.90;;;;;;5073197;28;20242;-85
2022/11/06 04:28:19;;;;;;;21.23;10.32;;;3.30;99.90;;;;;;5072561;28;20206;-85
2022/11/06 04:30:59;;;;;;;13.45;8.40;;;3.20;99.90;;;;;;5073217;28;20215;-86
2022/11/06 04:33:29;;;;;;;11.98;8.27;;;3.10;99.90;;;;;;5071949;28;20309;-85
2022/11/06 04:36:11;;;;;;;11.82;9.85;;;3.10;99.90;;;;;;5073152;28;20312;-85
2022/11/06 04:38:51;;;;;;;10.40;7.50;;;3.00;99.90;;;;;;5073256;28;20569;-85
2022/11/06 04:41:33;;;;;;;12.80;9.27;;;3.00;99.90;;;;;;5073705;28;20231;-85
2022/11/06 04:44:04;;;;;;;15.60;8.32;;;3.00;99.90;;;;;;5072647;28;20252;-85
2022/11/06 04:46:37;;;;;;;9.60;7.50;;;2.90;99.90;;;;;;5073409;28;20211;-86
2022/11/06 04:49:06;;;;;;;10.60;7.90;;;2.90;99.90;;;;;;5072953;28;20683;-85
2022/11/06 04:51:37;;;;;;;10.48;8.13;;;2.80;99.90;;;;;;5073585;28;20206;-84
2022/11/06 04:54:08;;;;;;;16.20;7.95;;;2.80;99.90;;;;;;5055605;28;20306;-84
2022/11/06 04:56:36;;;;;;;8.95;7.68;;;2.80;99.90;;;;;;5073793;28;20205;-85
2022/11/06 04:59:03;;;;;;;7.25;6.75;;;2.80;99.90;;;;;;5072746;28;20203;-84
2022/11/06 05:01:32;;;;;;;8.10;7.28;;;2.80;99.90;;;;;;5072593;28;20227;-85
2022/11/06 05:03:59;;;;;;;7.60;7.00;;;2.80;99.90;;;;;;5091473;22;20231;-83
2022/11/06 05:06:26;;;;;;;8.20;6.28;;;2.70;99.90;;;;;;5065892;28;20294;-83
2022/11/06 05:08:52;;;;;;;7.45;6.32;;;2.70;99.90;;;;;;5069342;28;20209;-84
2022/11/06 05:11:19;;;;;;;10.23;7.05;;;2.70;99.90;;;;;;5078734;28;20221;-83
2022/11/06 05:13:46;;;;;;;7.13;6.35;;;2.70;99.90;;;;;;5069214;28;20219;-83
2022/11/06 05:16:13;;;;;;;7.65;6.75;;;2.70;99.90;;;;;;5058488;28;20206;-84
2022/11/06 05:18:41;;;;;;;8.77;8.07;;;2.70;99.90;;;;;;5059015;28;20205;-84
2022/11/06 05:23:52;;;;;;;7.88;7.30;;;2.60;99.90;;;;;;5066449;28;20239;-82
2022/11/06 05:26:19;;;;;;;6.45;5.90;;;2.70;99.90;;;;;;5076289;28;20215;-84
2022/11/06 05:28:45;;;;;;;7.07;6.50;;;2.70;99.90;;;;;;5069835;28;20202;-84
2022/11/06 05:31:12;;;;;;;7.47;6.28;;;2.70;99.90;;;;;;5069497;28;20201;-83
2022/11/06 05:33:40;;;;;;;7.05;6.45;;;2.70;99.90;;;;;;5078543;28;20261;-84
2022/11/06 05:36:08;;;;;;;8.05;7.32;;;2.70;99.90;;;;;;5079822;28;20207;-84
2022/11/06 05:38:35;;;;;;;9.27;8.38;;;2.70;99.90;;;;;;5077652;28;20198;-84
2022/11/06 05:41:01;;;;;;;12.77;9.23;;;2.70;99.90;;;;;;5078519;28;20206;-84
2022/11/06 05:43:28;;;;;;;9.68;8.55;;;2.70;99.90;;;;;;5073240;28;20227;-82
2022/11/06 05:45:55;;;;;;;10.73;9.38;;;2.70;99.90;;;;;;5061718;28;20218;-84
2022/11/06 05:48:22;;;;;;;9.35;8.48;;;2.70;99.90;;;;;;5065502;28;20578;-84
2022/11/06 05:50:50;;;;;;;12.02;9.65;;;2.70;99.90;;;;;;5082358;28;20399;-82
2022/11/06 05:53:17;;;;;;;11.00;8.20;;;2.80;99.90;;;;;;5078398;28;20227;-83
2022/11/06 05:55:45;;;;;;;9.13;8.23;;;2.80;99.90;;;;;;5062003;28;20211;-83
2022/11/06 05:58:12;;;;;;;9.40;8.52;;;2.80;99.90;;;;;;5062592;28;20585;-84
2022/11/06 06:00:39;;;;;;;10.02;9.15;;;2.80;99.90;;;;;;5074219;28;20205;-82
2022/11/06 06:03:06;;;;;;;8.95;8.15;;;2.90;99.90;;;;;;5061541;28;20596;-84
2022/11/06 06:05:32;;;;;;;10.38;9.35;;;2.90;99.90;;;;;;5082454;28;20207;-84
2022/11/06 06:08:00;;;;;;;11.90;8.90;;;2.90;99.90;;;;;;5076767;28;20219;-82
2022/11/06 06:10:27;;;;;;;11.73;10.55;;;2.90;99.90;;;;;;5062885;28;20204;-82
2022/11/06 06:12:54;;;;;;;9.65;8.82;;;2.90;99.90;;;;;;5060324;28;20229;-84
2022/11/06 06:15:21;;;;;;;10.63;9.52;;;2.90;99.90;;;;;;5061971;28;20200;-84
2022/11/06 06:17:47;;;;;;;12.60;10.55;;;2.90;99.90;;;;;;5060208;28;20599;-83
2022/11/06 06:20:15;;;;;;;10.88;9.25;;;3.00;99.90;;;;;;5077576;28;20270;-84
2022/11/06 06:22:41;;;;;;;11.07;9.88;;;3.00;99.90;;;;;;5080718;28;20228;-82
2022/11/06 06:25:10;;;;;;;11.35;10.10;;;3.00;99.90;;;;;;5066168;28;20212;-84
2022/11/06 06:27:37;;;;;;;14.10;10.65;;;3.00;99.90;;;;;;5081244;28;20215;-84
2022/11/06 06:30:05;;;;;;;11.85;9.88;;;3.00;99.90;;;;;;5076006;28;20213;-83
2022/11/06 06:32:33;;;;;;;12.57;10.68;;;3.00;99.90;;;;;;5081074;28;20265;-84
2022/11/06 06:35:00;;;;;;;11.73;9.95;;;3.00;99.90;;;;;;5062409;28;20214;-83
2022/11/06 06:37:26;;;;;;;12.52;11.07;;;3.00;99.90;;;;;;5061978;28;20207;-84
2022/11/06 06:39:53;;;;;;;13.40;12.00;;;3.10;99.90;;;;;;5061465;28;20682;-84
2022/11/06 06:42:21;;;;;;;12.10;10.85;;;3.10;99.90;;;;;;5060361;28;20228;-84
2022/11/06 06:44:48;;;;;;;14.73;11.95;;;3.10;99.90;;;;;;5079578;28;20201;-83
2022/11/06 06:47:16;;;;;;;13.15;10.70;;;3.20;99.90;;;;;;5080840;28;20204;-84
2022/11/06 06:49:43;;;;;;;12.60;11.30;;;3.20;99.90;;;;;;5079514;28;20226;-84
2022/11/06 06:52:10;;;;;;;11.88;10.55;;;3.20;99.90;;;;;;5061644;28;20690;-83
2022/11/06 06:54:38;;;;;;;13.95;11.50;;;3.30;99.90;;;;;;5076419;28;20225;-84
2022/11/06 06:57:07;;;;;;;11.55;10.23;;;3.30;99.90;;;;;;5080493;28;20204;-84
2022/11/06 06:59:36;;;;;;;10.45;9.30;;;3.30;99.90;;;;;;5065023;28;20262;-84
2022/11/06 07:02:03;;;;;;;13.20;10.60;;;3.40;99.90;;;;;;5060432;28;20246;-82
2022/11/06 07:04:29;;;;;;;14.05;10.05;;;3.40;99.90;;;;;;5060829;28;20241;-84
2022/11/06 07:06:56;;;;;;;11.88;10.73;;;3.40;99.90;;;;;;5060450;28;20244;-84
2022/11/06 07:09:23;;;;;;;11.88;10.68;;;3.40;99.90;;;;;;5060788;28;20215;-84
2022/11/06 07:11:50;;;;;;;12.25;10.73;;;3.60;99.90;;;;;;5060638;28;20206;-84
2022/11/06 07:14:17;;;;;;;13.85;12.43;;;3.70;99.90;;;;;;5060684;28;20229;-83
2022/11/06 07:16:45;;;;;;;11.25;10.10;;;3.70;99.90;;;;;;5060262;28;20589;-83
2022/11/06 07:19:12;;;;;;;13.40;12.00;;;3.70;99.90;;;;;;5060368;28;20209;-84
2022/11/06 07:21:39;;;;;;;13.38;11.30;;;3.80;99.90;;;;;;5060688;28;20214;-83
2022/11/06 07:24:06;;;;;;;11.77;10.20;;;3.70;99.90;;;;;;5060363;28;20230;-84
2022/11/06 07:26:33;;;;;;;11.43;10.27;;;3.70;99.90;;;;;;5060264;28;20261;-84
2022/11/06 07:28:59;;;;;;;12.73;10.38;;;3.70;99.90;;;;;;5059604;28;20209;-82
2022/11/06 07:31:26;;;;;;;9.82;8.93;;;3.60;99.90;;;;;;5060327;28;20586;-84
2022/11/06 07:33:54;;;;;;;10.98;9.45;;;3.60;99.90;;;;;;5059571;28;20231;-82
2022/11/06 07:36:21;;;;;;;12.50;10.45;;;3.50;99.90;;;;;;5061473;28;20216;-82
2022/11/06 07:38:48;;;;;;;13.75;9.88;;;3.50;99.90;;;;;;5061737;28;20205;-82
2022/11/06 07:41:15;;;;;;;17.63;10.07;;;3.40;99.90;;;;;;5061619;28;20215;-82
2022/11/06 07:43:43;;;;;;;21.73;12.98;;;3.40;99.90;;;;;;5060102;28;20233;-83
2022/11/06 07:46:12;;;;;;;29.35;12.23;;;3.40;99.90;;;;;;5060046;28;20215;-83
2022/11/06 07:48:39;;;;;;;11.27;9.88;;;3.40;99.90;;;;;;5060497;28;20209;-82
2022/11/06 07:51:10;;;;;;;31.45;10.93;;;3.30;99.90;;;;;;5060459;28;20236;-82
2022/11/06 07:53:37;;;;;;;17.55;9.73;;;3.30;99.90;;;;;;5062097;28;20257;-82
2022/11/06 07:56:05;;;;;;;59.08;13.48;;;3.30;99.90;;;;;;5061444;28;20208;-82
2022/11/06 07:58:33;;;;;;;53.33;14.30;;;3.30;99.90;;;;;;5060054;28;20667;-83
2022/11/06 08:01:00;;;;;;;74.55;16.90;;;3.30;99.90;;;;;;5060522;28;20250;-82
2022/11/06 08:03:28;;;;;;;51.10;13.40;;;3.20;99.90;;;;;;5060023;28;20255;-83
2022/11/06 08:05:55;;;;;;;39.60;13.10;;;3.30;99.90;;;;;;5060024;28;20299;-82
2022/11/06 08:08:23;;;;;;;43.33;14.20;;;3.30;99.90;;;;;;5058690;28;20207;-82
2022/11/06 08:10:52;;;;;;;53.95;14.95;;;3.40;99.90;;;;;;5059553;28;20208;-82
2022/11/06 08:13:19;;;;;;;34.70;12.02;;;3.40;99.90;;;;;;5058652;28;20231;-82
2022/11/06 08:15:46;;;;;;;35.60;13.65;;;3.50;99.90;;;;;;5059446;28;20213;-82
2022/11/06 08:18:12;;;;;;;22.40;11.05;;;3.60;99.90;;;;;;5059263;28;20208;-82
2022/11/06 08:20:39;;;;;;;25.33;12.00;;;3.70;99.90;;;;;;5059165;28;20235;-82
2022/11/06 08:23:08;;;;;;;20.75;12.30;;;3.80;99.90;;;;;;5058456;28;20229;-82
2022/11/06 08:25:37;;;;;;;12.57;9.70;;;3.90;99.90;;;;;;5060125;28;20208;-82
2022/11/06 08:28:04;;;;;;;23.20;10.98;;;4.10;99.90;;;;;;5059677;28;20209;-82
2022/11/06 08:30:31;;;;;;;12.80;10.88;;;4.20;99.90;;;;;;5059846;28;20205;-82
2022/11/06 08:33:01;;;;;;;31.98;13.07;;;4.40;99.90;;;;;;5060112;28;20227;-82
2022/11/06 08:35:28;;;;;;;12.73;8.65;;;4.50;99.90;;;;;;5059857;28;20224;-82
2022/11/06 08:37:54;;;;;;;17.02;10.60;;;4.60;99.90;;;;;;5060966;28;20206;-82
2022/11/06 08:40:21;;;;;;;16.23;10.85;;;4.80;99.90;;;;;;5061866;28;20205;-82
2022/11/06 08:42:49;;;;;;;27.63;11.80;;;4.90;99.90;;;;;;5058703;28;20221;-83
2022/11/06 08:45:16;;;;;;;13.07;9.18;;;5.10;99.90;;;;;;5053641;28;20205;-82
2022/11/06 08:47:43;;;;;;;11.63;9.55;;;5.20;99.90;;;;;;5057370;28;20198;-82
2022/11/06 08:50:10;;;;;;;16.58;10.23;;;5.30;99.90;;;;;;5060830;28;20209;-82
2022/11/06 08:52:37;;;;;;;13.75;9.95;;;5.30;99.90;;;;;;5057339;28;20198;-82
2022/11/06 08:55:04;;;;;;;11.98;10.48;;;5.40;99.90;;;;;;5058897;28;20197;-82
2022/11/06 08:57:31;;;;;;;12.30;9.38;;;5.50;99.90;;;;;;5056952;28;20572;-82
2022/11/06 08:59:59;;;;;;;13.32;10.55;;;5.60;99.90;;;;;;5058428;28;20230;-82
2022/11/06 09:02:25;;;;;;;12.35;10.93;;;5.70;99.90;;;;;;5057941;28;20230;-82
2022/11/06 09:04:52;;;;;;;12.45;9.18;;;5.80;99.90;;;;;;5057848;28;20213;-82
2022/11/06 09:07:19;;;;;;;11.30;10.05;;;5.80;99.90;;;;;;5058504;28;20296;-82
2022/11/06 09:09:46;;;;;;;13.52;12.10;;;5.80;99.90;;;;;;5055472;28;20205;-82
2022/11/06 09:12:12;;;;;;;16.58;12.35;;;5.80;99.90;;;;;;5058305;28;20211;-83
2022/11/06 09:14:39;;;;;;;14.00;11.27;;;5.90;99.90;;;;;;5059167;28;20229;-82
2022/11/06 09:17:07;;;;;;;15.48;11.73;;;5.90;99.90;;;;;;5057872;28;20287;-82
2022/11/06 09:19:34;;;;;;;15.98;13.40;;;5.90;99.90;;;;;;5061083;28;20205;-83
2022/11/06 09:22:01;;;;;;;13.60;10.75;;;6.10;99.90;;;;;;5060510;28;20205;-83
2022/11/06 09:24:29;;;;;;;13.18;11.50;;;6.20;99.90;;;;;;5061820;28;20288;-82
2022/11/06 09:26:56;;;;;;;12.32;11.07;;;6.40;99.90;;;;;;5061245;28;20686;-83
2022/11/06 09:29:22;;;;;;;13.30;10.50;;;6.50;99.90;;;;;;5060868;28;20205;-83
2022/11/06 09:31:49;;;;;;;13.07;11.77;;;6.60;99.90;;;;;;5061484;28;20221;-82
2022/11/06 09:34:17;;;;;;;12.10;10.65;;;6.60;99.90;;;;;;5060576;28;20221;-83
2022/11/06 09:36:44;;;;;;;13.63;11.43;;;6.60;99.90;;;;;;5059665;28;20220;-83
2022/11/06 09:39:12;;;;;;;15.63;13.10;;;6.60;99.90;;;;;;5060388;28;20201;-83
2022/11/06 09:41:47;;;;;;;11.52;10.35;;;6.80;99.90;;;;;;5061408;28;20300;-83
2022/11/06 09:44:30;;;;;;;14.57;11.30;;;7.00;99.90;;;;;;5059710;28;20236;-84
2022/11/06 09:46:59;;;;;;;11.82;10.57;;;7.30;99.90;;;;;;5062112;28;20209;-83
2022/11/06 09:49:33;;;;;;;12.57;10.02;;;7.40;99.90;;;;;;5061489;28;20212;-83
2022/11/06 09:52:04;;;;;;;9.98;8.95;;;7.60;99.90;;;;;;5059732;28;20213;-83
2022/11/06 09:54:36;;;;;;;10.40;9.30;;;7.80;99.90;;;;;;5062075;28;20226;-83
2022/11/06 09:57:06;;;;;;;9.93;8.60;;;8.00;99.90;;;;;;5059920;28;20225;-83
2022/11/06 09:59:37;;;;;;;8.85;7.80;;;8.30;99.90;;;;;;5058398;28;20206;-83
2022/11/06 10:02:19;;;;;;;9.32;7.10;;;8.50;99.90;;;;;;5058567;28;20206;-83
2022/11/06 10:04:52;;;;;;;7.20;6.50;;;8.70;99.90;;;;;;5058320;28;20207;-83
2022/11/06 10:07:27;;;;;;;6.93;6.25;;;8.90;99.90;;;;;;5059004;28;20707;-83
2022/11/06 10:09:54;;;;;;;7.13;6.53;;;9.10;99.90;;;;;;5058651;28;20728;-83
2022/11/06 10:12:31;;;;;;;5.95;5.35;;;9.30;99.90;;;;;;5058322;28;20698;-83
2022/11/06 10:15:40;;;;;;;6.72;5.88;;;9.50;99.90;;;;;;5058391;28;20211;-84
2022/11/06 10:48:04;;;;;;;7.23;6.60;;;12.50;99.90;;;;;;5004538;28;20967;-84
2022/11/06 10:51:03;;;;;;;;;;;;;;;;;;;;;
2022/11/06 10:53:41;;;;;;;7.37;6.67;;;13.70;99.90;;;;;;5068638;28;20847;-82
2022/11/06 10:56:30;;;;;;;7.17;6.57;;;13.90;99.90;;;;;;5061608;28;20446;-82
2022/11/06 10:58:57;;;;;;;5.83;5.33;;;14.30;99.90;;;;;;5058426;28;20981;-81
2022/11/06 11:01:24;;;;;;;5.73;5.23;;;14.40;99.90;;;;;;5066560;28;20445;-81
2022/11/06 11:03:53;;;;;;;5.97;5.47;;;14.50;99.90;;;;;;5080264;22;20487;-85
2022/11/06 11:06:20;;;;;;;7.27;6.40;;;14.60;99.90;;;;;;5063562;28;20526;-86
2022/11/06 11:09:00;;;;;;;7.53;6.90;;;14.70;99.90;;;;;;5068361;28;20432;-85
2022/11/06 11:11:28;;;;;;;5.97;5.47;;;14.80;99.90;;;;;;5067008;28;20433;-86
2022/11/06 11:14:21;;;;;;;5.70;5.20;;;14.80;99.90;;;;;;5065910;28;20464;-86
2022/11/06 11:16:49;;;;;;;5.73;5.23;;;14.80;99.90;;;;;;5065732;28;20937;-86
2022/11/06 11:19:29;;;;;;;6.50;5.90;;;14.80;99.90;;;;;;5051130;28;20452;-85
2022/11/06 11:22:00;;;;;;;7.10;6.40;;;14.70;99.90;;;;;;5054629;28;20991;-83
2022/11/06 11:24:39;;;;;;;6.97;6.30;;;14.70;99.90;;;;;;5054058;28;20929;-84
2022/11/06 11:27:13;;;;;;;6.97;6.40;;;14.80;99.90;;;;;;5053319;28;20517;-83
2022/11/06 11:29:56;;;;;;;6.73;6.13;;;15.00;99.90;;;;;;5054372;28;20466;-84
2022/11/06 11:32:35;;;;;;;6.60;6.10;;;15.40;99.90;;;;;;5054348;28;20820;-84
2022/11/06 11:35:21;;;;;;;6.77;6.27;;;15.80;99.90;;;;;;5053741;28;20470;-84
2022/11/06 11:38:24;;;;;;;6.37;5.87;;;16.30;99.90;;;;;;5054618;28;20543;-87
2022/11/06 11:41:08;;;;;;;7.63;6.83;;;16.80;99.90;;;;;;5057437;28;20483;-84
2022/11/06 11:43:35;;;;;;;5.50;5.10;;;17.20;98.20;;;;;;5058195;28;20478;-83
2022/11/06 11:46:21;;;;;;;5.70;5.30;;;17.20;94.40;;;;;;5059667;28;20451;-84
2022/11/06 11:48:50;;;;;;;6.93;6.07;;;17.10;95.50;;;;;;5059352;28;20484;-84
2022/11/06 11:51:27;;;;;;;5.73;4.83;;;17.20;95.50;;;;;;5059440;28;20461;-83
2022/11/06 11:53:57;;;;;;;6.30;5.70;;;17.40;95.30;;;;;;5059199;28;20495;-84
2022/11/06 11:56:28;;;;;;;5.57;5.17;;;17.70;95.00;;;;;;5058785;28;20455;-83
2022/11/06 11:58:59;;;;;;;5.07;4.67;;;18.10;96.40;;;;;;5058431;28;20466;-83
2022/11/06 12:01:38;;;;;;;5.33;4.93;;;18.60;94.50;;;;;;5058969;28;20838;-83
2022/11/06 12:04:23;;;;;;;4.83;4.43;;;19.00;94.60;;;;;;5058752;28;20478;-84
2022/11/06 12:06:59;;;;;;;4.57;4.17;;;19.20;92.00;;;;;;5058756;28;20454;-84
2022/11/06 12:09:29;;;;;;;5.27;4.87;;;19.50;90.70;;;;;;5058544;28;20463;-83
2022/11/06 12:11:58;;;;;;;4.60;4.30;;;19.50;89.60;;;;;;5059089;28;20485;-83
2022/11/06 12:14:36;;;;;;;3.90;3.70;;;19.70;90.00;;;;;;5059280;28;20526;-83
2022/11/06 12:17:12;;;;;;;6.13;5.10;;;19.80;90.20;;;;;;5060205;28;20459;-83
2022/11/06 12:19:44;;;;;;;2.93;2.73;;;19.70;86.10;;;;;;5060233;28;20454;-84
2022/11/06 12:22:17;;;;;;;3.90;3.70;;;19.80;86.90;;;;;;5059939;28;20449;-84
2022/11/06 12:24:51;;;;;;;4.13;3.73;;;19.80;87.80;;;;;;5059642;28;20471;-83
2022/11/06 12:27:21;;;;;;;3.93;3.63;;;20.00;90.00;;;;;;5059130;28;20458;-83
2022/11/06 12:29:51;;;;;;;3.93;3.63;;;20.20;85.00;;;;;;5059300;28;20452;-83
2022/11/06 12:32:48;;;;;;;4.53;4.13;;;20.10;83.90;;;;;;5059108;28;20454;-83
2022/11/06 12:35:21;;;;;;;4.70;4.30;;;20.20;86.20;;;;;;5056365;28;20483;-84
2022/11/06 12:37:58;;;;;;;4.53;4.23;;;20.60;91.10;;;;;;5059716;28;20458;-84
2022/11/06 12:40:43;;;;;;;5.60;5.20;;;20.70;81.50;;;;;;5060449;28;20435;-83
2022/11/06 12:43:17;;;;;;;5.33;4.83;;;20.20;81.40;;;;;;5058685;28;20489;-83
2022/11/06 12:46:20;;;;;;;5.00;4.60;;;19.50;83.80;;;;;;5058773;28;21035;-82
2022/11/06 12:49:20;;;;;;;5.37;4.87;;;18.80;86.50;;;;;;5059464;28;20518;-82
2022/11/06 12:52:00;;;;;;;5.47;5.07;;;18.40;89.00;;;;;;5073300;28;20471;-83
2022/11/06 12:54:42;;;;;;;4.67;4.33;;;18.10;86.90;;;;;;5062053;28;20521;-83
2022/11/06 12:57:19;;;;;;;5.07;4.67;;;17.70;86.10;;;;;;5056998;28;20461;-83
2022/11/06 13:00:02;;;;;;;5.20;4.80;;;17.30;88.00;;;;;;5057185;28;20458;-83
2022/11/06 13:02:45;;;;;;;4.80;4.40;;;16.90;89.10;;;;;;5057425;28;20483;-83
2022/11/06 13:05:16;;;;;;;5.33;4.93;;;16.70;90.70;;;;;;5056266;28;20444;-83
2022/11/06 13:08:03;;;;;;;5.03;4.67;;;16.50;91.10;;;;;;5056965;28;20966;-83
2022/11/06 13:10:45;;;;;;;4.67;4.27;;;16.40;91.00;;;;;;5057299;28;20469;-83
2022/11/06 13:13:27;;;;;;;5.17;4.73;;;16.30;91.90;;;;;;5056984;28;20468;-83
2022/11/06 13:16:00;;;;;;;5.07;4.57;;;16.10;91.50;;;;;;5057477;28;20532;-83
2022/11/06 13:18:38;;;;;;;6.70;5.10;;;16.00;92.00;;;;;;5057268;28;20448;-85
2022/11/06 13:21:10;;;;;;;5.23;4.90;;;15.90;92.60;;;;;;5059000;28;20453;-82
2022/11/06 13:26:48;;;;;;;5.47;5.07;;;15.70;93.30;;;;;;5062973;28;20447;-84
2022/11/06 13:36:06;;;;;;;6.07;5.57;;;15.30;94.50;;;;;;5072439;28;20479;-84
2022/11/06 13:38:37;;;;;;;5.93;4.90;;;15.00;94.60;;;;;;5060025;28;20446;-84
2022/11/06 13:41:09;;;;;;;5.40;4.93;;;14.80;94.90;;;;;;5075806;28;20448;-84
2022/11/06 13:43:41;;;;;;;5.23;4.73;;;14.70;95.50;;;;;;5075635;28;20451;-83
2022/11/06 13:46:15;;;;;;;5.03;4.63;;;14.50;96.10;;;;;;5089550;28;20454;-84
2022/11/06 13:48:53;;;;;;;5.33;4.90;;;14.30;96.20;;;;;;5073818;28;20432;-84
2022/11/06 13:51:26;;;;;;;6.57;6.07;;;14.20;96.70;;;;;;5079755;28;20447;-85
2022/11/06 13:54:03;;;;;;;6.53;5.93;;;14.00;97.00;;;;;;5067159;28;20827;-83
2022/11/06 13:56:52;;;;;;;5.57;5.07;;;13.80;97.40;;;;;;5063532;28;20439;-84